Nearby METAR Reports

 

KLEX - Lexington, Kentucky, USA
Distance from station: WNW 7mi, 11km
Updated: Thu, 21-Sep-2017 2:54am EDT
Clear
Clear
 Wind from SE
Wind: SE 3 mph , 6 km/h
Temperature: 68°F , 20°C
Dew Point: 64°F , 18°C
Humidity: 88%
Barometer: 30.07 inHg , 1018.3 hPa
Clouds: Clear
Visibility: 10 miles , 16 km
2017/09/21 06:54 KLEX 210654Z 14003KT 10SM CLR 20/18 A3007 RMK AO2 SLP174 T02000183
KFFT - Frankfort, Kentucky, USA
Distance from station: WNW 26mi, 42km
Updated: Thu, 21-Sep-2017 2:53am EDT
Clear
Clear
 Wind from calm
Wind: Calm
Temperature: 66°F , 19°C
Dew Point: 64°F , 18°C
Humidity: 94%
Barometer: 30.06 inHg , 1017.9 hPa
Clouds: Clear
Visibility: 7 miles , 11 km
2017/09/21 06:53 KFFT 210653Z AUTO 00000KT 7SM CLR 19/18 A3006 RMK AO2 SLP170 T01940178
 
KIOB - Mount Sterling, Kentucky, USA
Distance from station: E 27mi, 44km
Updated: Thu, 21-Sep-2017 2:55am EDT
Clear
Clear
 Wind from calm
Wind: Calm
Temperature: 64°F , 18°C
Dew Point: 64°F , 18°C
Humidity: 100%
Barometer: 30.09 inHg , 1019 hPa
Clouds: Clear
Visibility: 7 miles , 11 km
2017/09/21 06:55 KIOB 210655Z AUTO 00000KT 7SM CLR 18/18 A3009 RMK AO2
KDVK - Danville, Kentucky, USA
Distance from station: SSW 33mi, 53km
Updated: Thu, 21-Sep-2017 2:10am EDT
Mist, Clear
Mist, Clear
 Wind from calm
Wind: Calm
Temperature: 66°F , 19°C
Dew Point: 64°F , 18°C
Humidity: 94%
Barometer: 30.08 inHg , 1018.6 hPa
Summary: Mist
Clouds: Clear
Visibility: 4 miles , 6 km
2017/09/21 06:10 KDVK 210610Z AUTO 00000KT 4SM BR CLR 19/18 A3008 RMK AO2